createdAt,value
2018-03-02T00:00:52.479Z,36.83
2018-03-02T00:03:19.091Z,35.03
2018-03-02T00:05:45.290Z,34.45
2018-03-02T00:08:11.529Z,36.70
2018-03-02T00:10:37.767Z,37.63
2018-03-02T00:13:03.974Z,34.47
2018-03-02T00:15:30.192Z,34.10
2018-03-02T00:17:56.419Z,36.55
2018-03-02T00:20:22.671Z,36.55
2018-03-02T00:22:48.888Z,35.15
2018-03-02T00:25:15.083Z,36.70
2018-03-02T00:27:41.328Z,35.03
2018-03-02T00:30:07.558Z,34.15
2018-03-02T00:32:33.788Z,35.90
2018-03-02T00:35:00.784Z,35.40
2018-03-02T00:37:27.018Z,37.13
2018-03-02T00:39:53.232Z,34.53
2018-03-02T00:42:20.240Z,37.88
2018-03-02T00:44:47.196Z,36.35
2018-03-02T00:47:13.424Z,37.58
2018-03-02T00:49:39.640Z,32.75
2018-03-02T00:52:05.914Z,35.70
2018-03-02T00:54:32.119Z,32.33
2018-03-02T00:56:58.354Z,36.08
2018-03-02T00:59:25.343Z,33.63
2018-03-02T01:01:51.570Z,33.10
2018-03-02T01:04:17.787Z,35.30
2018-03-02T01:06:44.732Z,34.83
2018-03-02T01:09:11.695Z,32.15
2018-03-02T01:11:38.656Z,41.05
2018-03-02T01:14:05.607Z,31.95
2018-03-02T01:16:32.561Z,39.08
2018-03-02T01:18:58.773Z,39.10
2018-03-02T01:21:25.021Z,37.88
2018-03-02T01:23:51.263Z,34.97
2018-03-02T01:26:17.817Z,38.75
2018-03-02T01:28:44.117Z,37.60
2018-03-02T01:31:10.363Z,34.60
2018-03-02T01:33:36.581Z,36.42
2018-03-02T01:36:02.851Z,38.10
2018-03-02T01:38:29.095Z,35.92
2018-03-02T01:40:55.355Z,34.92
2018-03-02T01:43:21.577Z,35.83
2018-03-02T01:45:47.806Z,37.13
2018-03-02T01:48:14.087Z,35.15
2018-03-02T01:50:40.298Z,38.85
2018-03-02T01:53:06.531Z,37.22
2018-03-02T01:55:32.757Z,36.90
2018-03-02T01:57:58.976Z,37.17
2018-03-02T02:00:25.191Z,34.88
2018-03-02T02:02:51.426Z,34.83
2018-03-02T02:05:17.651Z,34.80
2018-03-02T02:07:43.877Z,38.80
2018-03-02T02:10:10.661Z,38.17
2018-03-02T02:12:36.870Z,37.17
2018-03-02T02:15:03.086Z,38.05
2018-03-02T02:17:29.332Z,37.42
2018-03-02T02:19:55.549Z,36.10
2018-03-02T02:22:22.537Z,38.85
2018-03-02T02:24:48.748Z,39.17
2018-03-02T02:27:15.692Z,37.35
2018-03-02T02:29:42.694Z,38.47
2018-03-02T02:32:09.627Z,39.25
2018-03-02T02:34:35.850Z,34.08
2018-03-02T02:37:02.865Z,37.08
2018-03-02T02:39:29.152Z,37.40
2018-03-02T02:41:56.098Z,38.00
2018-03-02T02:44:23.113Z,35.80
2018-03-02T02:46:49.350Z,34.47
2018-03-02T02:49:15.561Z,35.70
2018-03-02T02:51:41.806Z,39.25
2018-03-02T02:54:08.064Z,33.75
2018-03-02T02:56:34.304Z,37.90
2018-03-02T02:59:00.518Z,36.85
2018-03-02T03:01:26.770Z,40.60
2018-03-02T03:03:52.994Z,39.60
2018-03-02T03:06:19.937Z,39.20
2018-03-02T03:08:46.176Z,40.12
2018-03-02T03:11:13.136Z,41.72
2018-03-02T03:13:40.126Z,34.92
2018-03-02T03:16:06.400Z,39.13
2018-03-02T03:18:32.628Z,40.30
2018-03-02T03:20:58.844Z,41.35
2018-03-02T03:23:25.050Z,40.47
2018-03-02T03:25:51.275Z,40.17
2018-03-02T03:28:17.483Z,40.47
2018-03-02T03:30:43.690Z,39.85
2018-03-02T03:33:10.655Z,40.85
2018-03-02T03:35:36.851Z,40.15
2018-03-02T03:38:03.092Z,38.65
2018-03-02T03:40:29.299Z,38.25
2018-03-02T03:42:55.543Z,39.42
2018-03-02T03:45:21.759Z,39.05
2018-03-02T03:47:48.019Z,39.08
2018-03-02T03:50:14.255Z,40.80
2018-03-02T03:52:40.475Z,40.55
2018-03-02T03:55:06.709Z,36.65
2018-03-02T03:57:33.667Z,36.30
2018-03-02T04:00:00.619Z,41.45
2018-03-02T04:02:27.581Z,38.55
2018-03-02T04:04:54.527Z,37.72
2018-03-02T04:07:21.489Z,41.22
2018-03-02T04:09:48.423Z,38.05
2018-03-02T04:12:14.626Z,37.58
2018-03-02T04:14:40.924Z,39.60
2018-03-02T04:17:07.094Z,38.20
2018-03-02T04:19:33.342Z,35.25
2018-03-02T04:21:59.542Z,40.00
2018-03-02T04:24:26.517Z,39.70
2018-03-02T04:26:52.755Z,37.00
2018-03-02T04:29:19.713Z,40.35
2018-03-02T04:31:46.732Z,37.88
2018-03-02T04:34:12.942Z,37.78
2018-03-02T04:36:39.183Z,38.15
2018-03-02T04:39:05.386Z,38.00
2018-03-02T04:41:32.357Z,39.20
2018-03-02T04:43:58.554Z,39.80
2018-03-02T04:46:24.772Z,37.92
2018-03-02T04:48:50.999Z,38.00
2018-03-02T04:51:17.197Z,41.63
2018-03-02T04:53:44.146Z,39.08
2018-03-02T04:56:10.355Z,40.53
2018-03-02T04:58:36.548Z,42.35
2018-03-02T05:01:02.786Z,39.03
2018-03-02T05:03:29.014Z,35.70
2018-03-02T05:05:55.971Z,40.50
2018-03-02T05:08:22.918Z,38.47
2018-03-02T05:10:49.136Z,36.53
2018-03-02T05:13:15.336Z,38.45
2018-03-02T05:15:41.546Z,39.17
2018-03-02T05:18:08.492Z,36.42
2018-03-02T05:20:35.522Z,36.72
2018-03-02T05:23:01.815Z,37.13
2018-03-02T05:25:28.027Z,35.15
2018-03-02T05:27:54.569Z,36.28
2018-03-02T05:30:20.829Z,39.00
2018-03-02T05:32:47.794Z,36.78
2018-03-02T05:35:14.028Z,41.85
2018-03-02T05:37:41.028Z,42.53
2018-03-02T05:40:07.262Z,46.08
2018-03-02T05:42:33.487Z,40.95
2018-03-02T05:44:59.703Z,34.78
2018-03-02T05:47:26.640Z,34.08
2018-03-02T05:49:52.862Z,34.38
2018-03-02T05:52:19.093Z,36.85
2018-03-02T05:54:45.315Z,36.97
2018-03-02T05:57:11.536Z,36.63
2018-03-02T05:59:37.750Z,36.17
2018-03-02T06:02:03.986Z,35.08
2018-03-02T06:04:30.200Z,37.65
2018-03-02T06:06:56.434Z,34.90
2018-03-02T06:09:22.647Z,37.83
2018-03-02T06:11:48.932Z,37.90
2018-03-02T06:14:15.194Z,34.55
2018-03-02T06:16:41.400Z,35.40
2018-03-02T06:19:07.623Z,36.40
2018-03-02T06:21:33.875Z,36.40
2018-03-02T06:24:00.138Z,36.45
2018-03-02T06:26:26.361Z,36.22
2018-03-02T06:28:52.588Z,37.05
2018-03-02T06:31:18.795Z,33.53
2018-03-02T06:33:45.763Z,35.30
2018-03-02T06:36:11.989Z,35.85
2018-03-02T06:38:38.953Z,34.47
2018-03-02T06:41:05.171Z,34.85
2018-03-02T06:43:38.387Z,37.92
2018-03-02T06:46:05.360Z,40.17
2018-03-02T06:48:31.563Z,33.60
2018-03-02T06:50:57.795Z,36.25
2018-03-02T06:53:24.024Z,37.58
2018-03-02T06:55:50.246Z,36.92
2018-03-02T06:58:16.477Z,37.85
2018-03-02T07:00:42.704Z,32.90
2018-03-02T07:03:09.063Z,35.25
2018-03-02T07:05:35.288Z,37.17
2018-03-02T07:08:01.531Z,38.83
2018-03-02T07:10:27.761Z,35.08
2018-03-02T07:12:54.774Z,33.60
2018-03-02T07:15:20.995Z,35.30
2018-03-02T07:17:47.201Z,36.88
2018-03-02T07:20:14.191Z,35.00
2018-03-02T07:22:40.394Z,34.55
2018-03-02T07:25:07.410Z,37.85
2018-03-02T07:27:33.675Z,35.17
2018-03-02T07:30:00.656Z,34.15
2018-03-02T07:32:27.632Z,33.22
2018-03-02T07:35:00.835Z,35.20
2018-03-02T07:37:27.061Z,32.10
2018-03-02T07:39:53.299Z,36.05
2018-03-02T07:42:20.325Z,34.53
2018-03-02T07:44:46.532Z,35.33
2018-03-02T07:47:12.771Z,34.83
2018-03-02T07:49:39.008Z,31.23
2018-03-02T07:52:05.245Z,36.65
2018-03-02T07:54:31.472Z,35.17
2018-03-02T07:56:57.684Z,30.35
2018-03-02T07:59:24.663Z,34.22
2018-03-02T08:01:50.884Z,35.25
2018-03-02T08:04:17.988Z,35.15
2018-03-02T08:06:44.938Z,35.03
2018-03-02T08:09:11.152Z,37.65
2018-03-02T08:11:37.385Z,36.65
2018-03-02T08:14:04.397Z,34.55
2018-03-02T08:16:30.619Z,38.88
2018-03-02T08:18:56.827Z,32.42
2018-03-02T08:21:23.790Z,32.80
2018-03-02T08:23:50.743Z,34.05
2018-03-02T08:26:17.726Z,35.35
2018-03-02T08:28:43.971Z,35.38
2018-03-02T08:31:10.194Z,36.90
2018-03-02T08:33:36.403Z,36.22
2018-03-02T08:36:02.625Z,39.05
2018-03-02T08:38:28.862Z,35.97
2018-03-02T08:40:55.084Z,35.58
2018-03-02T08:43:21.666Z,34.08
2018-03-02T08:45:47.872Z,32.95
2018-03-02T08:48:14.109Z,32.95
2018-03-02T08:50:40.379Z,35.45
2018-03-02T08:53:06.591Z,37.70
2018-03-02T08:55:33.184Z,36.38
2018-03-02T08:57:59.384Z,36.50
2018-03-02T09:00:25.591Z,33.28
2018-03-02T09:02:51.813Z,32.08
2018-03-02T09:05:18.779Z,35.33
2018-03-02T09:07:45.775Z,38.28
2018-03-02T09:10:12.035Z,35.15
2018-03-02T09:12:38.975Z,37.60
2018-03-02T09:15:05.263Z,34.83
2018-03-02T09:17:31.465Z,34.53
2018-03-02T09:19:58.495Z,35.60
2018-03-02T09:22:25.431Z,38.20
2018-03-02T09:24:52.417Z,36.95
2018-03-02T09:27:18.635Z,35.97
2018-03-02T09:29:45.611Z,36.05
2018-03-02T09:32:11.845Z,38.38
2018-03-02T09:34:38.063Z,33.40
2018-03-02T09:37:05.019Z,35.30
2018-03-02T09:39:32.009Z,36.80
2018-03-02T09:41:58.227Z,34.75
2018-03-02T09:44:25.193Z,34.78
2018-03-02T09:46:51.436Z,36.63
2018-03-02T09:49:17.658Z,28.92
2018-03-02T09:51:44.608Z,33.90
2018-03-02T09:54:11.604Z,35.50
2018-03-02T09:56:37.856Z,34.05
2018-03-02T09:59:04.115Z,34.85
2018-03-02T10:01:31.072Z,36.15
2018-03-02T10:03:57.284Z,35.17
2018-03-02T10:06:23.525Z,36.13
2018-03-02T10:08:49.731Z,34.47
2018-03-02T10:11:16.707Z,34.15
2018-03-02T10:13:42.941Z,31.48
2018-03-02T10:16:09.455Z,34.88
2018-03-02T10:18:35.654Z,36.03
2018-03-02T10:21:01.934Z,30.95
2018-03-02T10:23:28.188Z,33.45
2018-03-02T10:25:55.162Z,33.38
2018-03-02T10:28:22.118Z,34.70
2018-03-02T10:30:49.072Z,34.92
2018-03-02T10:33:16.031Z,32.38
2018-03-02T10:35:43.062Z,35.67
2018-03-02T10:38:09.260Z,32.30
2018-03-02T10:40:35.512Z,32.70
2018-03-02T10:43:01.721Z,33.55
2018-03-02T10:45:27.952Z,33.80
2018-03-02T10:47:54.919Z,35.83
2018-03-02T10:50:21.439Z,34.65
2018-03-02T10:52:48.396Z,32.97
2018-03-02T10:55:14.615Z,34.20
2018-03-02T10:57:40.846Z,34.05
2018-03-02T11:00:07.072Z,33.55
2018-03-02T11:02:33.336Z,34.20
2018-03-02T11:05:05.742Z,36.55
2018-03-02T11:07:32.724Z,32.53
2018-03-02T11:09:58.964Z,32.78
2018-03-02T11:12:25.961Z,35.30
2018-03-02T11:14:52.217Z,33.53
2018-03-02T11:17:18.455Z,35.05
2018-03-02T11:19:44.734Z,32.20
2018-03-02T11:22:11.685Z,36.00
2018-03-02T11:24:38.674Z,35.50
2018-03-02T11:27:04.889Z,35.38
2018-03-02T11:29:31.837Z,36.70
2018-03-02T11:31:58.061Z,35.08
2018-03-02T11:34:25.755Z,36.13
2018-03-02T11:36:52.803Z,34.00
2018-03-02T11:39:19.015Z,37.22
2018-03-02T11:41:45.259Z,34.00
2018-03-02T11:44:11.472Z,36.67
2018-03-02T11:46:37.708Z,33.90
2018-03-02T11:49:03.967Z,34.10
2018-03-02T11:51:30.182Z,36.05
2018-03-02T11:53:56.417Z,34.38
2018-03-02T11:56:22.621Z,34.17
2018-03-02T11:58:48.852Z,37.92
2018-03-02T12:01:15.077Z,39.15
2018-03-02T12:03:41.320Z,36.85
2018-03-02T12:06:08.284Z,36.85
2018-03-02T12:08:34.501Z,35.38
2018-03-02T12:11:00.733Z,36.20
2018-03-02T12:13:26.962Z,37.78
2018-03-02T12:15:53.184Z,36.05
2018-03-02T12:18:20.154Z,37.13
2018-03-02T12:20:46.389Z,35.55
2018-03-02T12:23:13.344Z,37.35
2018-03-02T12:25:39.568Z,35.90
2018-03-02T12:28:06.545Z,35.42
2018-03-02T12:30:33.518Z,36.10
2018-03-02T12:32:59.756Z,34.40
2018-03-02T12:35:25.958Z,38.30
2018-03-02T12:37:52.198Z,34.97
2018-03-02T12:40:18.443Z,37.75
2018-03-02T12:42:44.672Z,37.83
2018-03-02T12:45:10.908Z,35.10
2018-03-02T12:47:37.148Z,35.25
2018-03-02T12:50:03.377Z,37.75
2018-03-02T12:52:29.610Z,37.50
2018-03-02T12:54:55.856Z,37.25
2018-03-02T12:57:22.070Z,35.28
2018-03-02T12:59:48.359Z,33.13
2018-03-02T13:02:14.629Z,37.42
2018-03-02T13:04:40.875Z,37.65
2018-03-02T13:07:07.103Z,36.92
2018-03-02T13:09:34.086Z,35.67
2018-03-02T13:12:00.322Z,38.10
2018-03-02T13:14:26.552Z,37.03
2018-03-02T13:16:52.783Z,39.00
2018-03-02T13:19:19.787Z,36.17
2018-03-02T13:21:45.985Z,38.22
2018-03-02T13:24:12.988Z,35.10
2018-03-02T13:26:51.601Z,33.17
2018-03-02T13:29:17.879Z,36.65
2018-03-02T13:31:44.152Z,34.17
2018-03-02T13:34:23.411Z,36.30
2018-03-02T13:36:49.638Z,35.55
2018-03-02T13:39:28.915Z,35.35
2018-03-02T13:42:10.065Z,37.45
2018-03-02T13:44:37.067Z,38.35
2018-03-02T13:47:03.287Z,36.08
2018-03-02T13:49:41.752Z,35.30
2018-03-02T13:52:08.019Z,37.78
2018-03-02T13:54:34.267Z,36.72
2018-03-02T13:57:12.710Z,35.30
2018-03-02T13:59:39.689Z,37.30
2018-03-02T14:02:05.981Z,36.63
2018-03-02T14:04:44.511Z,37.22
2018-03-02T14:07:10.772Z,36.40
2018-03-02T14:09:37.787Z,36.17
2018-03-02T14:12:04.029Z,34.63
2018-03-02T14:14:30.293Z,34.97
2018-03-02T14:16:56.538Z,32.67
2018-03-02T14:19:22.808Z,37.13
2018-03-02T14:21:49.807Z,35.50
2018-03-02T14:24:16.061Z,34.35
2018-03-02T14:26:42.295Z,33.90
2018-03-02T14:29:08.526Z,35.55
2018-03-02T14:31:34.759Z,33.55
2018-03-02T14:34:00.988Z,35.53
2018-03-02T14:36:27.236Z,33.78
2018-03-02T14:38:53.458Z,34.67
2018-03-02T14:41:19.689Z,36.67
2018-03-02T14:43:46.673Z,37.92
2018-03-02T14:46:12.903Z,37.25
2018-03-02T14:48:39.142Z,35.97
2018-03-02T14:51:05.447Z,40.17
2018-03-02T14:53:31.718Z,37.38
2018-03-02T14:55:58.678Z,36.22
2018-03-02T14:58:24.933Z,34.45
2018-03-02T15:00:51.148Z,34.70
2018-03-02T15:03:18.128Z,35.47
2018-03-02T15:05:44.403Z,34.17
2018-03-02T15:08:10.639Z,35.60
2018-03-02T15:10:36.930Z,34.88
2018-03-02T15:13:03.915Z,34.78
2018-03-02T15:15:30.142Z,32.30
2018-03-02T15:17:56.394Z,33.95
2018-03-02T15:20:22.655Z,37.72
2018-03-02T15:22:48.880Z,34.28
2018-03-02T15:25:15.113Z,34.35
2018-03-02T15:27:41.347Z,36.88
2018-03-02T15:30:07.582Z,37.47
2018-03-02T15:32:33.820Z,36.03
2018-03-02T15:35:00.060Z,35.92
2018-03-02T15:37:27.054Z,33.83
2018-03-02T15:39:53.282Z,33.75
2018-03-02T15:42:19.526Z,36.08
2018-03-02T15:44:45.762Z,33.40
2018-03-02T15:47:11.981Z,34.10
2018-03-02T15:49:38.964Z,34.72
2018-03-02T15:52:05.216Z,35.63
2018-03-02T15:54:31.450Z,36.92
2018-03-02T15:56:57.680Z,45.42
2018-03-02T15:59:23.932Z,41.37
2018-03-02T16:01:50.196Z,39.22
2018-03-02T16:04:16.420Z,34.90
2018-03-02T16:06:42.721Z,34.92
2018-03-02T16:09:08.938Z,33.88
2018-03-02T16:11:35.166Z,35.88
2018-03-02T16:14:01.406Z,33.00
2018-03-02T16:16:27.622Z,35.88
2018-03-02T16:18:53.861Z,40.80
2018-03-02T16:21:20.109Z,36.08
2018-03-02T16:23:46.355Z,39.50
2018-03-02T16:26:12.641Z,39.15
2018-03-02T16:28:39.605Z,36.75
2018-03-02T16:31:06.576Z,39.03
2018-03-02T16:33:32.799Z,33.85
2018-03-02T16:35:59.790Z,34.80
2018-03-02T16:38:26.041Z,37.00
2018-03-02T16:40:52.268Z,35.63
2018-03-02T16:43:18.531Z,35.75
2018-03-02T16:45:44.753Z,38.50
2018-03-02T16:48:11.008Z,37.95
2018-03-02T16:50:37.263Z,38.22
2018-03-02T16:53:04.387Z,36.22
2018-03-02T16:55:30.642Z,34.80
2018-03-02T16:57:56.880Z,33.88
2018-03-02T17:00:23.163Z,37.40
2018-03-02T17:02:49.445Z,36.05
2018-03-02T17:05:15.959Z,36.63
2018-03-02T17:07:42.963Z,36.85
2018-03-02T17:10:09.232Z,35.83
2018-03-02T17:12:35.527Z,37.80
2018-03-02T17:15:01.760Z,38.28
2018-03-02T17:17:28.029Z,40.63
2018-03-02T17:19:54.252Z,40.05
2018-03-02T17:22:20.485Z,39.25
2018-03-02T17:24:46.745Z,40.10
2018-03-02T17:27:12.987Z,41.75
2018-03-02T17:29:39.248Z,39.10
2018-03-02T17:32:05.473Z,38.83
2018-03-02T17:34:31.766Z,41.03
2018-03-02T17:36:57.979Z,40.12
2018-03-02T17:39:24.270Z,38.45
2018-03-02T17:41:50.530Z,38.40
2018-03-02T17:44:16.772Z,38.88
2018-03-02T17:46:43.117Z,38.15
2018-03-02T17:49:09.383Z,40.90
2018-03-02T17:51:35.611Z,38.53
2018-03-02T17:54:01.850Z,41.20
2018-03-02T17:56:28.148Z,44.03
2018-03-02T17:58:55.156Z,46.17
2018-03-02T18:01:21.414Z,42.90
2018-03-02T18:03:47.650Z,41.97
2018-03-02T18:06:13.941Z,44.05
2018-03-02T18:08:40.197Z,43.08
2018-03-02T18:11:06.536Z,43.15
2018-03-02T18:13:33.480Z,41.63
2018-03-02T18:15:59.747Z,40.45
2018-03-02T18:18:26.014Z,42.33
2018-03-02T18:20:52.301Z,42.53
2018-03-02T18:23:19.325Z,40.05
2018-03-02T18:25:45.561Z,41.65
2018-03-02T18:28:11.826Z,44.22
2018-03-02T18:30:38.791Z,42.28
2018-03-02T18:33:05.821Z,42.90
2018-03-02T18:35:32.103Z,40.10
2018-03-02T18:37:58.422Z,42.28
2018-03-02T18:40:25.410Z,41.00
2018-03-02T18:42:51.639Z,43.03
2018-03-02T18:45:17.889Z,44.42
2018-03-02T18:47:44.142Z,53.87
2018-03-02T18:50:10.389Z,61.88
2018-03-02T18:52:36.667Z,47.08
2018-03-02T18:55:02.933Z,46.45
2018-03-02T18:57:29.937Z,45.30
2018-03-02T18:59:56.293Z,45.75
2018-03-02T19:02:22.892Z,44.75
2018-03-02T19:04:49.862Z,43.45
2018-03-02T19:07:16.090Z,43.55
2018-03-02T19:09:43.091Z,44.53
2018-03-02T19:12:09.370Z,45.67
2018-03-02T19:14:35.651Z,45.30
2018-03-02T19:17:01.927Z,45.88
2018-03-02T19:19:29.311Z,47.28
2018-03-02T19:21:55.605Z,46.58
2018-03-02T19:24:21.882Z,46.20
2018-03-02T19:26:48.228Z,45.63
2018-03-02T19:29:14.554Z,45.92
2018-03-02T19:31:40.895Z,45.45
2018-03-02T19:34:07.174Z,46.20
2018-03-02T19:36:34.208Z,43.22
2018-03-02T19:39:00.629Z,47.08
2018-03-02T19:41:26.951Z,47.92
2018-03-02T19:43:53.253Z,47.60
2018-03-02T19:46:19.627Z,46.00
2018-03-02T19:48:46.024Z,50.42
2018-03-02T19:51:12.326Z,49.85
2018-03-02T19:53:38.911Z,49.95
2018-03-02T19:56:05.206Z,47.20
2018-03-02T19:58:31.509Z,48.53
2018-03-02T20:00:57.851Z,49.53
2018-03-02T20:03:24.141Z,53.55
2018-03-02T20:05:50.467Z,49.33
2018-03-02T20:08:17.776Z,47.45
2018-03-02T20:10:44.082Z,49.13
2018-03-02T20:13:10.453Z,52.78
2018-03-02T20:15:36.767Z,53.65
2018-03-02T20:18:03.461Z,48.00
2018-03-02T20:20:29.821Z,48.97
2018-03-02T20:22:56.200Z,51.63
2018-03-02T20:25:23.206Z,53.08
2018-03-02T20:27:49.520Z,51.95
2018-03-02T20:30:15.888Z,53.78
2018-03-02T20:32:42.997Z,50.72
2018-03-02T20:35:10.112Z,54.10
2018-03-02T20:37:36.436Z,51.20
2018-03-02T20:40:02.767Z,50.17
2018-03-02T20:42:29.034Z,52.45
2018-03-02T20:44:55.300Z,51.85
2018-03-02T20:47:21.666Z,51.63
2018-03-02T20:49:47.952Z,50.35
2018-03-02T20:52:14.258Z,52.70
2018-03-02T20:54:41.345Z,50.80
2018-03-02T20:57:07.698Z,52.58
2018-03-02T20:59:33.982Z,51.55
2018-03-02T21:02:00.230Z,54.10
2018-03-02T21:04:27.324Z,53.45
2018-03-02T21:06:53.610Z,52.75
2018-03-02T21:09:19.942Z,53.87
2018-03-02T21:11:46.221Z,54.65
2018-03-02T21:14:13.252Z,51.33
2018-03-02T21:16:39.530Z,50.28
2018-03-02T21:19:06.548Z,53.85
2018-03-02T21:21:32.880Z,53.15
2018-03-02T21:23:59.122Z,55.25
2018-03-02T21:26:25.366Z,56.20
2018-03-02T21:28:52.390Z,53.45
2018-03-02T21:31:18.743Z,53.80
2018-03-02T21:33:45.030Z,52.25
2018-03-02T21:36:11.247Z,60.40
2018-03-02T21:38:38.302Z,57.65
2018-03-02T21:41:04.531Z,57.50
2018-03-02T21:43:30.797Z,53.17
2018-03-02T21:45:57.065Z,51.88
2018-03-02T21:48:23.297Z,50.72
2018-03-02T21:50:49.570Z,54.80
2018-03-02T21:53:15.843Z,51.08
2018-03-02T21:55:42.128Z,51.08
2018-03-02T21:58:09.128Z,53.53
2018-03-02T22:00:35.392Z,54.58
2018-03-02T22:03:01.626Z,50.58
2018-03-02T22:05:27.844Z,53.15
2018-03-02T22:07:54.090Z,55.53
2018-03-02T22:10:20.298Z,56.47
2018-03-02T22:12:46.537Z,59.83
2018-03-02T22:15:12.756Z,55.83
2018-03-02T22:17:38.995Z,55.33
2018-03-02T22:20:05.241Z,52.40
2018-03-02T22:22:31.896Z,52.15
2018-03-02T22:24:58.121Z,54.85
2018-03-02T22:27:24.339Z,55.30
2018-03-02T22:29:50.551Z,55.50
2018-03-02T22:32:16.766Z,55.35
2018-03-02T22:34:42.995Z,55.60
2018-03-02T22:37:09.202Z,59.70
2018-03-02T22:39:35.517Z,56.70
2018-03-02T22:42:01.676Z,54.35
2018-03-02T22:44:27.892Z,56.95
2018-03-02T22:46:54.160Z,53.42
2018-03-02T22:49:20.436Z,54.30
2018-03-02T22:51:46.656Z,54.67
2018-03-02T22:54:12.880Z,57.00
2018-03-02T22:56:39.107Z,59.42
2018-03-02T22:59:05.338Z,54.55
2018-03-02T23:01:31.556Z,53.97
2018-03-02T23:03:58.505Z,52.60
2018-03-02T23:06:24.738Z,58.15
2018-03-02T23:08:50.955Z,56.55
2018-03-02T23:11:17.160Z,55.35
2018-03-02T23:13:43.403Z,63.85
2018-03-02T23:16:09.636Z,60.08
2018-03-02T23:18:35.855Z,57.17
2018-03-02T23:21:02.867Z,59.05
2018-03-02T23:23:29.125Z,56.78
2018-03-02T23:25:55.363Z,58.10
2018-03-02T23:28:22.316Z,58.95
2018-03-02T23:30:48.537Z,59.80
2018-03-02T23:33:14.786Z,56.25
2018-03-02T23:35:41.012Z,64.65
2018-03-02T23:38:07.271Z,60.22
2018-03-02T23:40:33.470Z,61.28
2018-03-02T23:42:59.727Z,59.58
2018-03-02T23:45:25.965Z,59.72
2018-03-02T23:47:52.184Z,62.25
2018-03-02T23:50:18.414Z,61.72
2018-03-02T23:52:45.370Z,59.70
2018-03-02T23:55:12.352Z,59.90
2018-03-02T23:57:38.568Z,56.75
